Time;durP1;ratioP1;P1;durP2;ratioP2;P2;SDS_P1;SDS_P2;PMS_P1;PMS_P2;Temp;Humidity;BMP_temperature;BMP_pressure;BME280_temperature;BME280_humidity;BME280_pressure;Samples;Min_cycle;Max_cycle;Signal;HPM_P1;HPM_P2
2023/05/09 00:01:44;;;;;;;;;;;18.30;58.50;;;;;;5052339;28;819;-70
2023/05/09 00:04:10;;;;;;;;;;;18.30;58.60;;;;;;5052341;28;949;-70
2023/05/09 00:06:36;;;;;;;;;;;18.30;58.60;;;;;;5051893;28;1333;-70
2023/05/09 00:09:02;;;;;;;;;;;18.30;59.20;;;;;;5052394;28;836;-71
2023/05/09 00:11:27;;;;;;;;;;;18.30;58.60;;;;;;5051930;28;1068;-71
2023/05/09 00:13:52;;;;;;;;;;;18.30;58.70;;;;;;5052528;28;1883;-71
2023/05/09 00:16:19;;;;;;;;;;;18.30;58.70;;;;;;5053542;28;1292;-71
2023/05/09 00:18:45;;;;;;;;;;;18.30;58.70;;;;;;5051991;28;823;-70
2023/05/09 00:21:11;;;;;;;;;;;18.30;58.70;;;;;;5084195;28;907;-71
2023/05/09 00:23:37;;;;;;;;;;;18.30;58.70;;;;;;5050610;28;836;-71
2023/05/09 00:26:02;;;;;;;;;;;18.30;58.80;;;;;;5051850;28;1360;-70
2023/05/09 00:28:28;;;;;;;;;;;18.30;58.80;;;;;;5050602;28;876;-70
2023/05/09 00:30:53;;;;;;;;;;;18.30;58.80;;;;;;5051808;28;871;-70
2023/05/09 00:33:19;;;;;;;;;;;18.30;58.80;;;;;;5045191;28;1951;-70
2023/05/09 00:35:44;;;;;;;;;;;18.30;58.80;;;;;;5051521;28;1297;-70
2023/05/09 00:38:10;;;;;;;;;;;18.30;58.90;;;;;;5083892;28;864;-71
2023/05/09 00:40:36;;;;;;;;;;;18.30;58.90;;;;;;5052021;28;1224;-70
2023/05/09 00:43:01;;;;;;;;;;;18.30;58.90;;;;;;5050850;28;837;-70
2023/05/09 00:45:26;;;;;;;;;;;18.30;58.90;;;;;;5051474;28;1251;-70
2023/05/09 00:47:52;;;;;;;;;;;18.30;58.90;;;;;;5051634;28;1001;-70
2023/05/09 00:50:17;;;;;;;;;;;18.30;58.90;;;;;;5051513;28;913;-71
2023/05/09 00:52:43;;;;;;;;;;;18.30;59.00;;;;;;5051530;28;1906;-71
2023/05/09 00:55:09;;;;;;;;;;;18.30;59.00;;;;;;5050858;28;1282;-70
2023/05/09 00:57:34;;;;;;;;;;;18.30;59.00;;;;;;5051255;28;792;-70
2023/05/09 01:00:00;;;;;;;;;;;18.30;59.00;;;;;;5066668;28;1308;-70
2023/05/09 01:02:25;;;;;;;;;;;18.30;59.10;;;;;;5053647;28;1362;-71
2023/05/09 01:04:51;;;;;;;;;;;18.30;59.00;;;;;;5051259;28;1268;-70
2023/05/09 01:07:16;;;;;;;;;;;18.30;59.10;;;;;;5049856;28;808;-71
2023/05/09 01:09:48;;;;;;;;;;;18.30;59.10;;;;;;5053387;28;1322;-71
2023/05/09 01:12:25;;;;;;;;;;;18.30;59.10;;;;;;5083163;28;1973;-70
2023/05/09 01:14:57;;;;;;;;;;;18.30;59.10;;;;;;5050706;28;1273;-70
2023/05/09 01:17:26;;;;;;;;;;;18.30;59.10;;;;;;5050449;28;841;-70
2023/05/09 01:20:10;;;;;;;;;;;18.30;59.20;;;;;;5032993;28;831;-70
2023/05/09 01:22:36;;;;;;;;;;;18.30;59.20;;;;;;5050276;28;853;-70
2023/05/09 01:25:03;;;;;;;;;;;18.30;59.20;;;;;;5082140;28;1344;-70
2023/05/09 01:27:45;;;;;;;;;;;18.30;59.20;;;;;;5050546;28;843;-70
2023/05/09 01:30:11;;;;;;;;;;;18.20;59.20;;;;;;5083060;28;834;-70
2023/05/09 01:32:37;;;;;;;;;;;18.30;59.20;;;;;;5050547;28;1898;-70
2023/05/09 01:35:03;;;;;;;;;;;18.30;59.20;;;;;;5049482;28;1513;-70
2023/05/09 01:37:29;;;;;;;;;;;18.30;59.30;;;;;;5082687;28;793;-70
2023/05/09 01:39:55;;;;;;;;;;;18.30;59.30;;;;;;5049842;28;1346;-70
2023/05/09 01:42:20;;;;;;;;;;;18.30;59.30;;;;;;5048503;28;913;-70
2023/05/09 01:44:46;;;;;;;;;;;18.20;59.30;;;;;;5082087;28;1278;-70
2023/05/09 01:47:11;;;;;;;;;;;18.30;59.40;;;;;;5049865;28;876;-70
2023/05/09 01:49:37;;;;;;;;;;;18.30;59.40;;;;;;5082588;28;879;-70
2023/05/09 01:52:03;;;;;;;;;;;18.20;59.30;;;;;;5049731;28;1898;-70
2023/05/09 01:54:28;;;;;;;;;;;18.30;59.40;;;;;;5048211;28;1275;-71
2023/05/09 01:56:54;;;;;;;;;;;18.30;59.40;;;;;;5082352;28;915;-70
2023/05/09 01:59:19;;;;;;;;;;;18.30;59.40;;;;;;5049088;28;1007;-70
2023/05/09 02:01:45;;;;;;;;;;;18.30;59.40;;;;;;5050445;28;860;-71
2023/05/09 02:04:10;;;;;;;;;;;18.20;59.40;;;;;;5066206;28;875;-71
2023/05/09 02:06:35;;;;;;;;;;;18.30;59.50;;;;;;5051545;28;1329;-70
2023/05/09 02:09:01;;;;;;;;;;;18.30;59.50;;;;;;5050232;28;927;-70
2023/05/09 02:11:27;;;;;;;;;;;18.30;59.50;;;;;;5048951;28;867;-70
2023/05/09 02:13:52;;;;;;;;;;;18.30;59.50;;;;;;5082128;28;1893;-70
2023/05/09 02:16:18;;;;;;;;;;;18.30;59.50;;;;;;5048983;28;1221;-70
2023/05/09 02:18:43;;;;;;;;;;;18.20;59.50;;;;;;5048967;28;880;-70
2023/05/09 02:21:09;;;;;;;;;;;18.20;59.50;;;;;;5050295;28;863;-70
2023/05/09 02:23:34;;;;;;;;;;;18.20;59.60;;;;;;5082244;28;864;-70
2023/05/09 02:26:00;;;;;;;;;;;18.30;59.60;;;;;;5048952;28;1256;-70
2023/05/09 02:28:25;;;;;;;;;;;18.30;59.60;;;;;;5048782;28;871;-70
2023/05/09 02:30:51;;;;;;;;;;;18.30;59.60;;;;;;5050288;28;958;-70
2023/05/09 02:33:16;;;;;;;;;;;18.30;59.60;;;;;;5082983;28;1901;-70
2023/05/09 02:35:43;;;;;;;;;;;18.20;59.60;;;;;;5084507;28;1360;-70
2023/05/09 02:38:09;;;;;;;;;;;18.20;59.60;;;;;;5052938;28;860;-70
2023/05/09 02:40:35;;;;;;;;;;;18.20;59.60;;;;;;5050127;28;1269;-70
2023/05/09 02:43:00;;;;;;;;;;;18.20;59.60;;;;;;5053631;28;914;-70
2023/05/09 02:45:26;;;;;;;;;;;18.20;59.60;;;;;;5085966;28;1286;-70
2023/05/09 02:47:51;;;;;;;;;;;18.20;59.70;;;;;;5053755;28;892;-70
2023/05/09 02:50:17;;;;;;;;;;;18.20;59.70;;;;;;5054031;28;824;-70
2023/05/09 02:52:42;;;;;;;;;;;18.20;59.70;;;;;;5053772;28;1910;-70
2023/05/09 02:55:08;;;;;;;;;;;18.20;59.70;;;;;;5053698;28;1335;-70
2023/05/09 02:57:34;;;;;;;;;;;18.20;59.70;;;;;;5052314;28;837;-70
2023/05/09 02:59:59;;;;;;;;;;;18.20;59.70;;;;;;5052607;28;902;-70
2023/05/09 03:02:25;;;;;;;;;;;18.20;59.70;;;;;;5053547;28;876;-70
2023/05/09 03:04:51;;;;;;;;;;;18.20;59.80;;;;;;5053320;28;1264;-70
2023/05/09 03:07:16;;;;;;;;;;;18.20;59.80;;;;;;5053222;28;922;-70
2023/05/09 03:09:41;;;;;;;;;;;18.20;59.80;;;;;;5053478;28;998;-70
2023/05/09 03:12:07;;;;;;;;;;;18.20;59.80;;;;;;5053417;28;1965;-70
2023/05/09 03:14:32;;;;;;;;;;;18.20;59.80;;;;;;5052924;28;1266;-70
2023/05/09 03:16:58;;;;;;;;;;;18.20;59.80;;;;;;5053422;28;1014;-70
2023/05/09 03:19:24;;;;;;;;;;;18.20;59.80;;;;;;5052514;28;787;-70
2023/05/09 03:21:49;;;;;;;;;;;18.20;59.80;;;;;;5053224;28;863;-70
2023/05/09 03:24:15;;;;;;;;;;;18.20;59.90;;;;;;5084579;28;1234;-70
2023/05/09 03:26:40;;;;;;;;;;;18.20;59.90;;;;;;5053224;28;1284;-70
2023/05/09 03:29:06;;;;;;;;;;;18.20;59.90;;;;;;5053727;28;777;-70
2023/05/09 03:31:31;;;;;;;;;;;18.20;59.90;;;;;;5053346;28;745;-70
2023/05/09 03:33:57;;;;;;;;;;;18.20;59.90;;;;;;5053048;28;1971;-70
2023/05/09 03:36:22;;;;;;;;;;;18.20;59.90;;;;;;5053049;28;1263;-70
2023/05/09 03:38:48;;;;;;;;;;;18.20;60.00;;;;;;5052721;28;1228;-71
2023/05/09 03:41:14;;;;;;;;;;;18.20;59.90;;;;;;5047210;28;789;-70
2023/05/09 03:43:40;;;;;;;;;;;18.20;59.90;;;;;;5084925;28;1014;-70
2023/05/09 03:46:05;;;;;;;;;;;18.20;60.00;;;;;;5052528;28;1373;-70
2023/05/09 03:48:30;;;;;;;;;;;18.20;60.00;;;;;;5051581;28;943;-70
2023/05/09 03:50:56;;;;;;;;;;;18.20;60.00;;;;;;5052923;28;1069;-71
2023/05/09 03:53:21;;;;;;;;;;;18.20;60.00;;;;;;5048607;28;1910;-70
2023/05/09 03:55:47;;;;;;;;;;;18.20;60.00;;;;;;5052859;28;1358;-71
2023/05/09 03:58:13;;;;;;;;;;;18.20;60.10;;;;;;5051309;28;816;-70
2023/05/09 04:00:39;;;;;;;;;;;18.20;60.10;;;;;;5051881;28;828;-71
2023/05/09 04:03:04;;;;;;;;;;;18.20;60.10;;;;;;5050924;28;879;-70
2023/05/09 04:05:32;;;;;;;;;;;18.20;60.10;;;;;;5084160;28;1240;-70
2023/05/09 04:07:58;;;;;;;;;;;18.20;60.10;;;;;;5052163;28;926;-70
2023/05/09 04:10:24;;;;;;;;;;;18.20;60.10;;;;;;5052250;28;863;-70
2023/05/09 04:12:49;;;;;;;;;;;18.20;60.10;;;;;;5050953;28;1910;-70
2023/05/09 04:15:15;;;;;;;;;;;18.30;60.00;;;;;;5052540;28;1375;-70
2023/05/09 04:17:40;;;;;;;;;;;18.30;60.00;;;;;;5052295;28;797;-70
2023/05/09 04:20:07;;;;;;;;;;;18.30;59.90;;;;;;5052459;28;1274;-70
2023/05/09 04:22:32;;;;;;;;;;;18.40;59.80;;;;;;5052328;28;819;-69
2023/05/09 04:24:58;;;;;;;;;;;18.40;59.80;;;;;;5050621;28;1854;-70
2023/05/09 04:27:23;;;;;;;;;;;18.40;59.70;;;;;;5049587;28;1260;-70
2023/05/09 04:29:49;;;;;;;;;;;18.50;59.60;;;;;;5052193;28;929;-70
2023/05/09 04:32:14;;;;;;;;;;;18.50;59.50;;;;;;5052027;28;1918;-70
2023/05/09 04:34:40;;;;;;;;;;;18.50;60.00;;;;;;5052116;28;1244;-70
2023/05/09 04:37:05;;;;;;;;;;;18.60;59.40;;;;;;5050843;28;836;-70
2023/05/09 04:39:31;;;;;;;;;;;18.60;59.30;;;;;;5051815;28;1339;-70
2023/05/09 04:41:56;;;;;;;;;;;18.60;59.30;;;;;;5051766;28;895;-70
2023/05/09 04:44:23;;;;;;;;;;;18.70;59.20;;;;;;5051774;28;1285;-69
2023/05/09 04:46:49;;;;;;;;;;;18.80;59.10;;;;;;5051267;28;837;-70
2023/05/09 04:49:15;;;;;;;;;;;18.90;59.00;;;;;;5051502;28;864;-70
2023/05/09 04:51:40;;;;;;;;;;;19.00;58.90;;;;;;5051235;28;854;-70
2023/05/09 04:54:05;;;;;;;;;;;19.20;58.60;;;;;;5050977;28;1963;-70
2023/05/09 04:56:31;;;;;;;;;;;19.30;58.30;;;;;;5051419;28;1253;-70
2023/05/09 04:58:56;;;;;;;;;;;19.50;58.10;;;;;;5050371;28;784;-70
2023/05/09 05:01:22;;;;;;;;;;;19.60;57.90;;;;;;5051344;28;890;-70
2023/05/09 05:03:47;;;;;;;;;;;19.70;57.60;;;;;;5051061;28;1010;-70
2023/05/09 05:06:13;;;;;;;;;;;19.80;57.40;;;;;;5051017;28;1184;-70
2023/05/09 05:08:38;;;;;;;;;;;19.90;57.30;;;;;;5051023;28;804;-70
2023/05/09 05:11:04;;;;;;;;;;;20.00;57.00;;;;;;5051054;28;1037;-70
2023/05/09 05:13:29;;;;;;;;;;;20.10;56.80;;;;;;5045058;28;1998;-70
2023/05/09 05:15:55;;;;;;;;;;;20.20;56.60;;;;;;5050883;28;1245;-70
2023/05/09 05:18:20;;;;;;;;;;;20.20;56.40;;;;;;5050909;28;847;-70
2023/05/09 05:20:46;;;;;;;;;;;20.30;56.30;;;;;;5051012;28;843;-70
2023/05/09 05:23:11;;;;;;;;;;;20.40;56.20;;;;;;5050568;28;911;-69
2023/05/09 05:25:37;;;;;;;;;;;20.40;56.00;;;;;;5050691;28;1320;-70
2023/05/09 05:28:03;;;;;;;;;;;20.50;55.90;;;;;;5051183;28;808;-70
2023/05/09 05:30:28;;;;;;;;;;;20.50;55.80;;;;;;5050820;28;1013;-70
2023/05/09 05:32:54;;;;;;;;;;;20.50;55.70;;;;;;5050114;28;1960;-70
2023/05/09 05:35:22;;;;;;;;;;;20.60;55.60;;;;;;5051812;28;1466;-70
2023/05/09 05:37:47;;;;;;;;;;;20.70;55.60;;;;;;5042235;28;1353;-70
2023/05/09 05:40:13;;;;;;;;;;;20.70;55.50;;;;;;5082557;28;1375;-70
2023/05/09 05:42:38;;;;;;;;;;;20.70;55.40;;;;;;5051210;28;848;-70
2023/05/09 05:45:04;;;;;;;;;;;20.70;55.40;;;;;;5051823;28;1283;-70
2023/05/09 05:47:33;;;;;;;;;;;20.70;55.30;;;;;;5050480;28;908;-70
2023/05/09 05:49:59;;;;;;;;;;;20.80;55.30;;;;;;5050294;28;855;-70
2023/05/09 05:52:25;;;;;;;;;;;20.80;55.30;;;;;;5031973;28;1886;-70
2023/05/09 05:54:51;;;;;;;;;;;20.80;55.30;;;;;;5049902;28;1282;-70
2023/05/09 05:57:17;;;;;;;;;;;20.80;55.30;;;;;;5050202;28;951;-70
2023/05/09 05:59:42;;;;;;;;;;;20.80;55.30;;;;;;5050514;28;1006;-70
2023/05/09 06:02:08;;;;;;;;;;;20.80;55.30;;;;;;5050506;28;856;-70
2023/05/09 06:04:33;;;;;;;;;;;20.80;55.30;;;;;;5050063;28;1258;-70
2023/05/09 06:06:59;;;;;;;;;;;20.80;55.30;;;;;;5050047;28;915;-70
2023/05/09 06:09:24;;;;;;;;;;;20.80;55.40;;;;;;5082597;28;823;-70
2023/05/09 06:11:50;;;;;;;;;;;20.80;55.40;;;;;;5049849;28;1968;-70
2023/05/09 06:14:15;;;;;;;;;;;20.80;55.50;;;;;;5050171;28;1330;-70
2023/05/09 06:16:41;;;;;;;;;;;20.80;55.60;;;;;;5050449;28;1409;-69
2023/05/09 06:19:06;;;;;;;;;;;20.80;55.60;;;;;;5045535;28;1904;-68
2023/05/09 06:21:33;;;;;;;;;;;20.80;55.70;;;;;;5047022;28;1578;-67
2023/05/09 06:23:58;;;;;;;;;;;20.80;55.80;;;;;;5049202;28;1113;-67
2023/05/09 06:26:25;;;;;;;;;;;20.70;55.80;;;;;;5049505;28;1360;-67
2023/05/09 06:28:50;;;;;;;;;;;20.70;55.90;;;;;;5049445;28;859;-68
2023/05/09 06:31:15;;;;;;;;;;;20.70;56.00;;;;;;5050032;28;1368;-69
2023/05/09 06:33:41;;;;;;;;;;;20.70;56.00;;;;;;5049946;28;1964;-71
2023/05/09 06:36:07;;;;;;;;;;;20.70;56.10;;;;;;5081787;28;1262;-69
2023/05/09 06:38:32;;;;;;;;;;;20.60;56.20;;;;;;5049858;28;998;-72
2023/05/09 06:40:58;;;;;;;;;;;20.60;56.20;;;;;;5082090;28;1266;-72
2023/05/09 06:43:23;;;;;;;;;;;20.60;56.30;;;;;;5049150;28;792;-70
2023/05/09 06:45:49;;;;;;;;;;;20.60;56.30;;;;;;5082280;28;1358;-72
2023/05/09 06:48:14;;;;;;;;;;;20.60;56.40;;;;;;5050227;28;870;-69
2023/05/09 06:50:39;;;;;;;;;;;20.60;56.40;;;;;;5049772;28;848;-68
2023/05/09 06:53:05;;;;;;;;;;;20.50;56.40;;;;;;5049312;28;1906;-68
2023/05/09 06:55:30;;;;;;;;;;;20.50;56.50;;;;;;5049443;28;1355;-69
2023/05/09 06:57:56;;;;;;;;;;;20.50;56.50;;;;;;5081915;28;1570;-69
2023/05/09 07:00:21;;;;;;;;;;;20.50;56.60;;;;;;5049877;28;921;-69
2023/05/09 07:02:47;;;;;;;;;;;20.50;57.20;;;;;;5049610;28;891;-69
2023/05/09 07:05:12;;;;;;;;;;;20.50;56.70;;;;;;5049225;28;1271;-69
2023/05/09 07:07:38;;;;;;;;;;;20.50;56.70;;;;;;5049529;28;923;-69
2023/05/09 07:10:04;;;;;;;;;;;20.40;56.70;;;;;;5049411;28;847;-69
2023/05/09 07:12:32;;;;;;;;;;;20.40;56.70;;;;;;5044818;28;1918;-69
2023/05/09 07:14:58;;;;;;;;;;;20.40;56.80;;;;;;5049017;28;1282;-69
2023/05/09 07:17:24;;;;;;;;;;;20.40;56.80;;;;;;5047806;28;1363;-69
2023/05/09 07:19:49;;;;;;;;;;;20.40;56.90;;;;;;5049673;28;2264;-69
2023/05/09 07:22:15;;;;;;;;;;;20.30;56.90;;;;;;5050355;28;1431;-69
2023/05/09 07:24:40;;;;;;;;;;;20.30;56.90;;;;;;5052630;28;1373;-69
2023/05/09 07:27:06;;;;;;;;;;;20.30;57.30;;;;;;5053129;28;1256;-68
2023/05/09 07:29:31;;;;;;;;;;;20.30;57.90;;;;;;5052906;28;1390;-69
2023/05/09 07:31:57;;;;;;;;;;;20.30;58.30;;;;;;5053018;28;1898;-69
2023/05/09 07:34:24;;;;;;;;;;;20.30;58.80;;;;;;5053990;28;1340;-69
2023/05/09 07:36:49;;;;;;;;;;;20.30;59.10;;;;;;5053333;28;825;-69
2023/05/09 07:39:15;;;;;;;;;;;20.30;59.30;;;;;;5052150;28;1191;-69
2023/05/09 07:41:41;;;;;;;;;;;20.20;59.40;;;;;;5051927;28;1270;-68
2023/05/09 07:44:08;;;;;;;;;;;20.20;59.50;;;;;;5051195;28;1450;-69
2023/05/09 07:46:37;;;;;;;;;;;20.20;59.50;;;;;;5051789;28;1629;-69
2023/05/09 07:49:02;;;;;;;;;;;20.20;59.60;;;;;;5052206;28;1490;-69
2023/05/09 07:51:28;;;;;;;;;;;20.20;60.50;;;;;;5051458;28;1321;-69
2023/05/09 07:53:56;;;;;;;;;;;20.20;60.00;;;;;;5034139;28;1898;-69
2023/05/09 07:56:22;;;;;;;;;;;20.20;60.10;;;;;;5052447;28;1334;-70
2023/05/09 07:58:47;;;;;;;;;;;20.20;60.30;;;;;;5050755;28;1479;-70
2023/05/09 08:01:13;;;;;;;;;;;20.20;60.30;;;;;;5051944;28;1327;-69
2023/05/09 08:03:38;;;;;;;;;;;20.20;60.30;;;;;;5051844;28;1389;-69
2023/05/09 08:06:04;;;;;;;;;;;20.20;60.80;;;;;;5050727;28;2046;-69
2023/05/09 08:08:29;;;;;;;;;;;20.20;60.70;;;;;;5052114;28;1351;-69
2023/05/09 08:10:55;;;;;;;;;;;20.20;60.70;;;;;;5048192;28;1250;-69
2023/05/09 08:13:21;;;;;;;;;;;20.20;60.70;;;;;;5084350;28;1957;-69
2023/05/09 08:15:47;;;;;;;;;;;20.20;60.90;;;;;;5084290;28;1365;-70
2023/05/09 08:18:13;;;;;;;;;;;20.20;61.10;;;;;;5052006;28;896;-70
2023/05/09 08:20:38;;;;;;;;;;;20.20;61.00;;;;;;5051183;28;870;-70
2023/05/09 08:23:04;;;;;;;;;;;20.20;60.90;;;;;;5052359;28;1163;-67
2023/05/09 08:25:30;;;;;;;;;;;20.20;60.90;;;;;;5050705;28;1256;-70
2023/05/09 08:27:55;;;;;;;;;;;20.20;61.10;;;;;;5046174;28;907;-71
2023/05/09 08:30:20;;;;;;;;;;;20.20;61.10;;;;;;5052025;28;919;-69
2023/05/09 08:32:46;;;;;;;;;;;20.20;61.00;;;;;;5051337;28;1963;-70
2023/05/09 08:35:11;;;;;;;;;;;20.20;61.10;;;;;;5051613;28;1348;-69
2023/05/09 08:37:37;;;;;;;;;;;20.20;61.40;;;;;;5051783;28;844;-69
2023/05/09 08:40:06;;;;;;;;;;;20.20;61.50;;;;;;5051724;28;1008;-70
2023/05/09 08:42:31;;;;;;;;;;;20.10;61.50;;;;;;5079564;28;1546;-70
2023/05/09 08:44:57;;;;;;;;;;;20.10;61.70;;;;;;5045892;28;1673;-69
2023/05/09 08:47:22;;;;;;;;;;;20.10;61.70;;;;;;5083727;28;846;-71
2023/05/09 08:49:49;;;;;;;;;;;20.10;61.70;;;;;;5049352;28;2122;-71
2023/05/09 08:52:14;;;;;;;;;;;20.00;61.90;;;;;;5065394;28;1902;-71
2023/05/09 08:54:40;;;;;;;;;;;20.10;61.90;;;;;;5049839;28;1477;-70
2023/05/09 08:57:05;;;;;;;;;;;20.00;62.00;;;;;;5083841;28;847;-70
2023/05/09 08:59:33;;;;;;;;;;;20.00;62.00;;;;;;5051403;28;922;-70
2023/05/09 09:01:59;;;;;;;;;;;20.00;62.00;;;;;;5050348;28;846;-70
2023/05/09 09:04:24;;;;;;;;;;;20.00;62.10;;;;;;5071080;28;1357;-70
2023/05/09 09:06:50;;;;;;;;;;;20.00;62.10;;;;;;5051198;28;818;-70
2023/05/09 09:09:15;;;;;;;;;;;20.00;62.20;;;;;;5044841;28;932;-70
2023/05/09 09:11:41;;;;;;;;;;;20.00;62.30;;;;;;5051354;28;909;-70
2023/05/09 09:14:11;;;;;;;;;;;20.00;62.30;;;;;;5083183;28;1918;-70
2023/05/09 09:16:37;;;;;;;;;;;20.00;62.50;;;;;;5050986;28;1350;-70
2023/05/09 09:19:02;;;;;;;;;;;20.00;62.70;;;;;;5051098;28;915;-70
2023/05/09 09:21:28;;;;;;;;;;;19.90;62.70;;;;;;5050610;28;938;-71
2023/05/09 09:23:55;;;;;;;;;;;19.90;63.00;;;;;;5084460;28;872;-70
2023/05/09 09:26:20;;;;;;;;;;;19.90;63.00;;;;;;5051107;28;1425;-70
2023/05/09 09:28:45;;;;;;;;;;;19.90;63.30;;;;;;5050927;28;820;-70
2023/05/09 09:31:18;;;;;;;;;;;19.90;63.30;;;;;;5051734;28;942;-70
2023/05/09 09:33:44;;;;;;;;;;;19.90;63.50;;;;;;5049967;28;1898;-70
2023/05/09 09:36:09;;;;;;;;;;;19.90;63.60;;;;;;5050511;28;1331;-70
2023/05/09 09:38:38;;;;;;;;;;;19.90;63.90;;;;;;5050823;28;864;-69
2023/05/09 09:41:04;;;;;;;;;;;19.90;63.80;;;;;;5052427;28;1570;-70
2023/05/09 09:43:29;;;;;;;;;;;19.90;63.80;;;;;;5050444;28;982;-70
2023/05/09 09:45:56;;;;;;;;;;;19.90;63.70;;;;;;5050037;28;1246;-70
2023/05/09 09:48:25;;;;;;;;;;;19.90;63.80;;;;;;5050424;28;891;-70
2023/05/09 09:50:52;;;;;;;;;;;19.90;63.70;;;;;;5050562;28;1232;-70
2023/05/09 09:53:18;;;;;;;;;;;19.90;63.80;;;;;;5050036;28;1965;-70
2023/05/09 09:55:50;;;;;;;;;;;19.90;63.70;;;;;;5050095;28;1252;-70
2023/05/09 09:58:17;;;;;;;;;;;19.90;63.80;;;;;;5049319;28;872;-71
2023/05/09 10:00:43;;;;;;;;;;;19.90;63.80;;;;;;5050555;28;909;-71
2023/05/09 10:03:12;;;;;;;;;;;19.90;63.70;;;;;;5050310;28;770;-70
2023/05/09 10:05:39;;;;;;;;;;;20.00;63.60;;;;;;5048854;28;1268;-71
2023/05/09 10:08:06;;;;;;;;;;;19.90;63.60;;;;;;5049309;28;1354;-71
2023/05/09 10:10:32;;;;;;;;;;;19.90;63.60;;;;;;5050388;28;859;-70
2023/05/09 10:12:58;;;;;;;;;;;19.90;63.60;;;;;;5048262;28;1959;-70
2023/05/09 10:15:24;;;;;;;;;;;19.90;63.80;;;;;;5082198;28;1399;-70
2023/05/09 10:17:50;;;;;;;;;;;19.90;63.90;;;;;;5050364;28;812;-71
2023/05/09 10:20:16;;;;;;;;;;;19.80;64.10;;;;;;5082490;28;922;-70
2023/05/09 10:22:41;;;;;;;;;;;19.80;64.40;;;;;;5050104;28;966;-71
2023/05/09 10:25:11;;;;;;;;;;;19.80;64.50;;;;;;5082470;28;1251;-71
2023/05/09 10:27:37;;;;;;;;;;;19.80;64.70;;;;;;5081358;28;851;-71
2023/05/09 10:30:03;;;;;;;;;;;19.80;65.00;;;;;;5049199;28;1030;-70
2023/05/09 10:32:29;;;;;;;;;;;19.80;65.30;;;;;;5049229;28;1903;-70
2023/05/09 10:34:57;;;;;;;;;;;19.80;65.50;;;;;;5050658;28;1336;-71
2023/05/09 10:37:23;;;;;;;;;;;19.80;67.00;;;;;;5048364;28;1458;-71
2023/05/09 10:39:52;;;;;;;;;;;19.80;66.40;;;;;;5048182;28;2124;-71
2023/05/09 10:42:18;;;;;;;;;;;19.80;66.60;;;;;;5048032;28;1511;-70
2023/05/09 10:44:44;;;;;;;;;;;19.80;66.60;;;;;;5048460;28;1249;-70
2023/05/09 10:47:11;;;;;;;;;;;19.80;66.80;;;;;;5082168;28;853;-71
2023/05/09 10:49:37;;;;;;;;;;;19.80;66.70;;;;;;5049305;28;919;-68
2023/05/09 10:52:03;;;;;;;;;;;19.80;66.80;;;;;;5049836;28;1965;-70
2023/05/09 10:54:31;;;;;;;;;;;19.80;67.00;;;;;;5049616;28;2292;-71
2023/05/09 10:56:56;;;;;;;;;;;19.80;66.90;;;;;;5050563;28;835;-70
2023/05/09 10:59:40;;;;;;;;;;;19.80;66.80;;;;;;5054274;28;1250;-70
2023/05/09 11:02:12;;;;;;;;;;;19.80;66.80;;;;;;5053475;28;872;-70
2023/05/09 11:04:38;;;;;;;;;;;19.80;66.70;;;;;;5048604;28;1231;-70
2023/05/09 11:07:04;;;;;;;;;;;19.80;66.50;;;;;;5085944;28;909;-70
2023/05/09 11:09:33;;;;;;;;;;;19.80;66.30;;;;;;5086025;28;1333;-70
2023/05/09 11:12:00;;;;;;;;;;;19.80;66.30;;;;;;5054590;28;832;-69
2023/05/09 11:14:29;;;;;;;;;;;19.80;66.30;;;;;;5085016;28;1960;-69
2023/05/09 11:16:59;;;;;;;;;;;19.70;66.30;;;;;;5052691;28;818;-69
2023/05/09 11:19:37;;;;;;;;;;;19.70;66.20;;;;;;5085605;28;854;-70
2023/05/09 11:22:10;;;;;;;;;;;19.70;66.30;;;;;;5054291;28;887;-72
2023/05/09 11:24:36;;;;;;;;;;;19.80;66.30;;;;;;5085649;28;1658;-69
2023/05/09 11:27:03;;;;;;;;;;;19.80;66.30;;;;;;5053223;28;930;-69
2023/05/09 11:29:29;;;;;;;;;;;19.80;66.20;;;;;;5051762;28;1638;-70
2023/05/09 11:32:04;;;;;;;;;;;19.80;66.20;;;;;;5053233;28;914;-70
2023/05/09 11:34:30;;;;;;;;;;;19.80;66.10;;;;;;5085210;28;1504;-69
2023/05/09 11:37:05;;;;;;;;;;;19.80;66.00;;;;;;5085418;28;962;-70
2023/05/09 11:39:31;;;;;;;;;;;19.80;66.00;;;;;;5053119;28;1258;-70
2023/05/09 11:41:56;;;;;;;;;;;19.80;65.90;;;;;;5052889;28;851;-70
2023/05/09 11:44:22;;;;;;;;;;;19.80;65.90;;;;;;5051750;28;836;-70
2023/05/09 11:46:47;;;;;;;;;;;19.80;66.10;;;;;;5051606;28;904;-71
2023/05/09 11:49:13;;;;;;;;;;;19.80;66.20;;;;;;5051632;28;848;-69
2023/05/09 11:51:38;;;;;;;;;;;19.70;66.20;;;;;;5084971;28;804;-69
2023/05/09 11:54:05;;;;;;;;;;;19.70;66.20;;;;;;5084540;28;1975;-69
2023/05/09 11:56:31;;;;;;;;;;;19.70;66.40;;;;;;5084789;28;1280;-69
2023/05/09 11:58:57;;;;;;;;;;;19.70;66.40;;;;;;5051336;28;1010;-69
2023/05/09 12:01:22;;;;;;;;;;;19.70;66.60;;;;;;5052136;28;883;-69
2023/05/09 12:03:48;;;;;;;;;;;19.70;66.70;;;;;;5051054;28;955;-69
2023/05/09 12:06:17;;;;;;;;;;;19.70;66.90;;;;;;5052307;28;1323;-69
2023/05/09 12:08:42;;;;;;;;;;;19.70;67.00;;;;;;5051543;28;836;-69
2023/05/09 12:11:08;;;;;;;;;;;19.70;66.90;;;;;;5051367;28;998;-69
2023/05/09 12:13:34;;;;;;;;;;;19.70;67.00;;;;;;5052496;28;1965;-69
2023/05/09 12:16:00;;;;;;;;;;;19.60;66.80;;;;;;5051256;28;2137;-71
2023/05/09 12:18:26;;;;;;;;;;;19.60;66.60;;;;;;5050888;28;1343;-71
2023/05/09 12:20:51;;;;;;;;;;;19.70;66.70;;;;;;5050565;28;1456;-71
2023/05/09 12:23:17;;;;;;;;;;;19.70;66.70;;;;;;5084174;28;1361;-71
2023/05/09 12:25:55;;;;;;;;;;;19.70;66.60;;;;;;5083452;28;1591;-71
2023/05/09 12:28:23;;;;;;;;;;;19.60;66.40;;;;;;5050373;28;1240;-70
2023/05/09 12:30:49;;;;;;;;;;;19.70;66.50;;;;;;5045473;28;1016;-70
2023/05/09 12:33:15;;;;;;;;;;;19.70;66.50;;;;;;5084652;28;1963;-70
2023/05/09 12:35:44;;;;;;;;;;;19.70;66.60;;;;;;5082689;28;1286;-71
2023/05/09 12:38:13;;;;;;;;;;;19.70;66.50;;;;;;5065171;28;1274;-70
2023/05/09 12:40:38;;;;;;;;;;;19.70;66.50;;;;;;5083513;28;907;-71
2023/05/09 12:43:04;;;;;;;;;;;19.70;66.60;;;;;;5051131;28;1879;-71
2023/05/09 12:45:33;;;;;;;;;;;19.70;66.50;;;;;;5082736;28;2048;-69
2023/05/09 12:47:59;;;;;;;;;;;19.70;66.30;;;;;;5050190;28;2078;-70
2023/05/09 12:50:33;;;;;;;;;;;19.70;66.30;;;;;;5046779;28;1381;-71
2023/05/09 12:52:59;;;;;;;;;;;19.70;66.50;;;;;;5048769;28;2233;-69
2023/05/09 12:55:25;;;;;;;;;;;19.60;66.40;;;;;;5031799;28;1957;-70
2023/05/09 12:57:57;;;;;;;;;;;19.70;66.60;;;;;;5050035;28;1234;-70
2023/05/09 13:00:23;;;;;;;;;;;19.70;66.50;;;;;;5083609;28;1422;-69
2023/05/09 13:02:49;;;;;;;;;;;19.70;66.50;;;;;;5052601;28;998;-71
2023/05/09 13:05:21;;;;;;;;;;;19.70;66.50;;;;;;5052155;28;1371;-69
2023/05/09 13:07:47;;;;;;;;;;;19.70;66.50;;;;;;5049469;28;2131;-70
2023/05/09 13:10:13;;;;;;;;;;;19.70;66.60;;;;;;5082779;28;2217;-69
2023/05/09 13:12:43;;;;;;;;;;;19.60;66.50;;;;;;5049841;28;1914;-70
2023/05/09 13:15:09;;;;;;;;;;;19.60;66.60;;;;;;5050769;28;1570;-69
2023/05/09 13:17:35;;;;;;;;;;;19.60;66.70;;;;;;5050320;28;1125;-69
2023/05/09 13:20:01;;;;;;;;;;;19.60;66.80;;;;;;5050042;28;1159;-69
2023/05/09 13:22:27;;;;;;;;;;;19.60;66.90;;;;;;5050867;28;1085;-70
2023/05/09 13:24:52;;;;;;;;;;;19.60;67.00;;;;;;5046133;28;1377;-71
2023/05/09 13:27:18;;;;;;;;;;;19.60;67.10;;;;;;5050987;28;1022;-70
2023/05/09 13:29:43;;;;;;;;;;;19.60;68.00;;;;;;5050855;28;844;-70
2023/05/09 13:32:08;;;;;;;;;;;19.60;67.30;;;;;;5083187;28;1973;-70
2023/05/09 13:34:34;;;;;;;;;;;19.60;67.60;;;;;;5050493;28;1292;-70
2023/05/09 13:36:59;;;;;;;;;;;19.60;67.90;;;;;;5050299;28;891;-70
2023/05/09 13:39:25;;;;;;;;;;;19.60;68.10;;;;;;5050458;28;1928;-72
2023/05/09 13:41:51;;;;;;;;;;;19.60;68.30;;;;;;5049135;28;2110;-70
2023/05/09 13:44:17;;;;;;;;;;;19.60;68.40;;;;;;5046610;28;1276;-69
2023/05/09 13:46:43;;;;;;;;;;;19.60;68.40;;;;;;5050100;28;1258;-69
2023/05/09 13:49:08;;;;;;;;;;;19.60;68.40;;;;;;5050357;28;867;-70
2023/05/09 13:51:33;;;;;;;;;;;19.60;68.20;;;;;;5049966;28;970;-71
2023/05/09 13:53:59;;;;;;;;;;;19.70;68.40;;;;;;5050238;28;1910;-71
2023/05/09 13:56:25;;;;;;;;;;;19.60;68.30;;;;;;5050337;28;1367;-71
2023/05/09 13:58:50;;;;;;;;;;;19.60;67.90;;;;;;5050441;28;784;-70
2023/05/09 14:01:15;;;;;;;;;;;19.60;67.80;;;;;;5050067;28;2104;-70
2023/05/09 14:03:41;;;;;;;;;;;19.60;67.90;;;;;;5050050;28;1496;-71
2023/05/09 14:06:09;;;;;;;;;;;19.60;67.90;;;;;;5049837;28;1540;-72
2023/05/09 14:08:34;;;;;;;;;;;19.60;67.80;;;;;;5049084;28;1415;-71
2023/05/09 14:11:00;;;;;;;;;;;19.60;67.80;;;;;;5050201;28;950;-71
2023/05/09 14:13:25;;;;;;;;;;;19.60;67.80;;;;;;5049617;28;1980;-71
2023/05/09 14:15:51;;;;;;;;;;;19.50;67.70;;;;;;5050560;28;1374;-71
2023/05/09 14:18:17;;;;;;;;;;;19.50;67.80;;;;;;5050336;28;836;-70
2023/05/09 14:20:42;;;;;;;;;;;19.50;67.90;;;;;;5050162;28;824;-70
2023/05/09 14:23:08;;;;;;;;;;;19.50;68.00;;;;;;5050072;28;851;-71
2023/05/09 14:25:33;;;;;;;;;;;19.50;68.00;;;;;;5050032;28;1268;-71
2023/05/09 14:27:58;;;;;;;;;;;19.50;68.30;;;;;;5050187;28;1735;-70
2023/05/09 14:30:25;;;;;;;;;;;19.50;68.30;;;;;;5049749;28;878;-70